Time;durP1;ratioP1;P1;durP2;ratioP2;P2;SDS_P1;SDS_P2;PMS_P1;PMS_P2;Temp;Humidity;BMP_temperature;BMP_pressure;BME280_temperature;BME280_humidity;BME280_pressure;Samples;Min_cycle;Max_cycle;Signal;HPM_P1;HPM_P2
2023/01/18 00:00:39;;;;;;;25.13;22.63;;;0.10;99.90;;;;;;4981634;28;20280;-45
2023/01/18 00:03:10;;;;;;;24.17;22.02;;;0.20;99.90;;;;;;4977364;28;20189;-49
2023/01/18 00:05:39;;;;;;;24.60;22.48;;;0.20;99.90;;;;;;4970430;28;20191;-46
2023/01/18 00:08:15;;;;;;;24.55;22.23;;;0.10;99.90;;;;;;4975666;28;20209;-46
2023/01/18 00:10:41;;;;;;;24.45;22.10;;;0.20;99.90;;;;;;4981782;28;20223;-45
2023/01/18 00:13:07;;;;;;;24.85;22.38;;;0.30;99.90;;;;;;4973118;28;20483;-45
2023/01/18 00:15:33;;;;;;;22.90;20.90;;;0.30;99.90;;;;;;4978417;28;20549;-47
2023/01/18 00:17:59;;;;;;;24.42;22.23;;;0.40;99.90;;;;;;4972278;28;20197;-46
2023/01/18 00:20:27;;;;;;;24.30;22.00;;;0.40;99.90;;;;;;4963265;28;20191;-48
2023/01/18 00:22:53;;;;;;;23.80;21.60;;;0.40;99.90;;;;;;4974381;28;20480;-46
2023/01/18 00:25:21;;;;;;;24.13;22.03;;;0.50;99.90;;;;;;4977958;28;20307;-50
2023/01/18 00:27:49;;;;;;;24.80;22.58;;;0.60;99.90;;;;;;4978156;28;20540;-48
2023/01/18 00:30:16;;;;;;;24.35;22.10;;;0.60;99.90;;;;;;4966295;28;20186;-48
2023/01/18 00:32:43;;;;;;;23.08;21.08;;;0.60;99.90;;;;;;4977877;28;20177;-48
2023/01/18 00:35:09;;;;;;;24.35;22.17;;;0.70;99.90;;;;;;4969361;28;20878;-46
2023/01/18 00:37:35;;;;;;;23.60;21.52;;;0.70;99.90;;;;;;4974545;28;20253;-48
2023/01/18 00:40:02;;;;;;;25.10;22.50;;;0.70;99.90;;;;;;4972429;28;20193;-49
2023/01/18 00:45:12;;;;;;;24.27;22.20;;;0.80;99.90;;;;;;4973584;28;20651;-46
2023/01/18 00:47:38;;;;;;;22.80;20.90;;;0.80;99.90;;;;;;4972974;28;20211;-47
2023/01/18 00:50:04;;;;;;;22.23;19.97;;;0.80;99.90;;;;;;4971011;28;20636;-46
2023/01/18 00:52:30;;;;;;;22.48;20.48;;;0.80;99.90;;;;;;4967923;28;20194;-48
2023/01/18 00:54:56;;;;;;;21.07;19.40;;;0.80;99.90;;;;;;4967349;28;20194;-43
2023/01/18 00:57:21;;;;;;;21.63;19.73;;;0.80;99.90;;;;;;4972439;28;20182;-45
2023/01/18 00:59:47;;;;;;;21.80;19.90;;;0.80;99.90;;;;;;4965629;28;20187;-43
2023/01/18 01:02:13;;;;;;;20.07;18.37;;;0.80;99.90;;;;;;4969076;28;20187;-48
2023/01/18 01:07:24;;;;;;;21.30;19.35;;;0.90;99.90;;;;;;4974708;28;20193;-46
2023/01/18 01:09:49;;;;;;;21.55;19.63;;;0.90;99.90;;;;;;4962739;28;20222;-47
2023/01/18 01:26:06;;;;;;;22.40;20.40;;;1.00;99.90;;;;;;4969333;28;20336;-49
2023/01/18 01:28:43;;;;;;;23.48;21.20;;;1.00;99.90;;;;;;4972613;28;20667;-48
2023/01/18 01:31:11;;;;;;;23.20;21.10;;;1.00;99.90;;;;;;4969264;28;20590;-46
2023/01/18 01:33:36;;;;;;;23.83;21.85;;;1.10;99.90;;;;;;4962588;28;20205;-45
2023/01/18 01:36:06;;;;;;;22.90;20.90;;;1.00;99.90;;;;;;4961982;28;20599;-45
2023/01/18 01:38:31;;;;;;;23.25;21.17;;;1.00;99.90;;;;;;4972822;28;20269;-47
2023/01/18 01:41:00;;;;;;;23.13;21.20;;;0.90;99.90;;;;;;4965164;28;20242;-44
2023/01/18 01:43:47;;;;;;;21.88;19.98;;;0.90;99.90;;;;;;4974695;28;20202;-45
2023/01/18 01:46:41;;;;;;;23.67;21.60;;;0.90;99.90;;;;;;4946236;28;20192;-47
2023/01/18 01:49:14;;;;;;;22.23;20.23;;;0.90;99.90;;;;;;4972102;28;20561;-48
2023/01/18 01:51:47;;;;;;;22.77;20.88;;;0.90;99.90;;;;;;4963384;28;20194;-49
2023/01/18 01:54:21;;;;;;;24.38;22.00;;;0.90;99.90;;;;;;4969142;28;20182;-48
2023/01/18 01:56:48;;;;;;;22.35;20.55;;;1.00;99.90;;;;;;4972851;28;20353;-45
2023/01/18 01:59:15;;;;;;;23.67;21.48;;;1.00;99.90;;;;;;4962484;28;20191;-47
2023/01/18 02:01:42;;;;;;;22.92;21.02;;;1.00;99.90;;;;;;4971390;28;20315;-46
2023/01/18 02:04:09;;;;;;;23.52;21.52;;;1.10;99.90;;;;;;4975238;28;20273;-47
2023/01/18 02:06:38;;;;;;;24.27;22.17;;;1.10;99.90;;;;;;4967658;28;20198;-45
2023/01/18 02:09:07;;;;;;;24.08;21.55;;;1.10;99.90;;;;;;4970004;28;20664;-47
2023/01/18 02:11:33;;;;;;;23.55;21.65;;;1.10;99.90;;;;;;4963081;28;20178;-45
2023/01/18 02:14:06;;;;;;;23.13;21.15;;;1.10;99.90;;;;;;4973556;28;20255;-46
2023/01/18 02:16:50;;;;;;;25.45;23.27;;;1.10;99.90;;;;;;4966194;28;20248;-45
2023/01/18 02:19:30;;;;;;;23.52;21.00;;;1.20;99.90;;;;;;4967719;28;20201;-49
2023/01/18 02:22:12;;;;;;;24.10;21.90;;;1.20;99.90;;;;;;4969036;28;20657;-46
2023/01/18 02:24:53;;;;;;;22.77;20.90;;;1.20;99.90;;;;;;4971756;28;20682;-46
2023/01/18 02:27:30;;;;;;;23.85;21.75;;;1.20;99.90;;;;;;4966779;28;20194;-45
2023/01/18 02:30:15;;;;;;;23.27;21.38;;;1.30;99.90;;;;;;4973994;28;20707;-47
2023/01/18 02:32:54;;;;;;;23.27;21.30;;;1.20;99.90;;;;;;4945643;28;20246;-48
2023/01/18 02:35:30;;;;;;;23.77;21.80;;;1.20;99.90;;;;;;4972879;28;20862;-49
2023/01/18 02:38:23;;;;;;;23.50;21.50;;;1.20;99.90;;;;;;4974950;28;20559;-45
2023/01/18 02:41:10;;;;;;;24.05;21.95;;;1.20;99.90;;;;;;4973685;28;20599;-46
2023/01/18 02:46:32;;;;;;;23.67;21.48;;;1.20;99.90;;;;;;4972208;28;20624;-45
2023/01/18 02:49:20;;;;;;;24.40;22.20;;;1.20;99.90;;;;;;4974437;28;20747;-45
2023/01/18 02:51:45;;;;;;;23.80;21.60;;;1.20;99.90;;;;;;4975600;28;20229;-45
2023/01/18 02:54:22;;;;;;;22.80;21.00;;;1.20;99.90;;;;;;4968350;28;20543;-44
2023/01/18 02:56:52;;;;;;;23.20;21.20;;;1.20;99.90;;;;;;4970605;28;20191;-46
2023/01/18 02:59:23;;;;;;;24.27;22.27;;;1.30;99.90;;;;;;4964406;28;20225;-43
2023/01/18 03:01:59;;;;;;;23.60;21.45;;;1.30;99.90;;;;;;4977183;28;20554;-47
2023/01/18 03:04:35;;;;;;;24.17;22.00;;;1.40;99.90;;;;;;4973940;28;20187;-42
2023/01/18 03:07:25;;;;;;;22.83;20.83;;;1.40;99.90;;;;;;4979444;28;20229;-44
2023/01/18 03:09:52;;;;;;;23.65;21.63;;;1.50;99.90;;;;;;4975064;28;20210;-44
2023/01/18 03:12:27;;;;;;;24.67;22.45;;;1.40;99.90;;;;;;4977796;28;20854;-44
2023/01/18 03:15:08;;;;;;;23.05;21.05;;;1.30;99.90;;;;;;4979750;28;20185;-46
2023/01/18 03:17:43;;;;;;;23.88;21.52;;;1.40;99.90;;;;;;4965489;28;20203;-47
2023/01/18 03:20:11;;;;;;;24.13;21.88;;;1.30;99.90;;;;;;4966120;28;20187;-46
2023/01/18 03:25:35;;;;;;;23.80;21.70;;;1.20;99.90;;;;;;4972624;28;20752;-50
2023/01/18 03:33:46;;;;;;;24.50;22.10;;;1.00;99.90;;;;;;4970844;28;20198;-46
2023/01/18 03:36:29;;;;;;;24.52;22.23;;;1.00;99.90;;;;;;4967143;28;20749;-47
2023/01/18 03:39:03;;;;;;;25.70;23.25;;;1.10;99.90;;;;;;4970306;28;20649;-45
2023/01/18 03:41:34;;;;;;;24.73;22.52;;;1.10;99.90;;;;;;4961668;28;20610;-46
2023/01/18 03:44:05;;;;;;;25.40;22.98;;;1.20;99.90;;;;;;4966635;28;20308;-44
2023/01/18 03:46:32;;;;;;;24.30;22.13;;;1.20;99.90;;;;;;4978247;28;20222;-46
2023/01/18 03:48:58;;;;;;;25.60;23.35;;;1.20;99.90;;;;;;4973779;28;20699;-45
2023/01/18 03:51:49;;;;;;;24.83;22.63;;;1.20;99.90;;;;;;4964721;28;20200;-44
2023/01/18 03:54:40;;;;;;;25.23;22.92;;;1.20;99.90;;;;;;4964095;28;20231;-45
2023/01/18 03:57:23;;;;;;;24.38;22.17;;;1.20;99.90;;;;;;4958296;28;20613;-43
2023/01/18 03:59:48;;;;;;;24.67;22.48;;;1.20;99.90;;;;;;4972464;28;20297;-43
2023/01/18 04:02:16;;;;;;;23.73;21.77;;;1.20;99.90;;;;;;4977336;28;20548;-45
2023/01/18 04:04:42;;;;;;;23.55;21.33;;;1.30;99.90;;;;;;4967008;28;20445;-45
2023/01/18 04:07:07;;;;;;;24.83;22.43;;;1.20;99.90;;;;;;4978102;28;20190;-47
2023/01/18 04:09:33;;;;;;;24.50;22.40;;;1.20;99.90;;;;;;4976811;28;20201;-48
2023/01/18 04:11:58;;;;;;;23.83;21.77;;;1.20;99.90;;;;;;4978961;28;20182;-47
2023/01/18 04:14:24;;;;;;;26.07;23.83;;;1.20;99.90;;;;;;4967990;28;20203;-46
2023/01/18 04:16:50;;;;;;;25.27;22.77;;;1.20;99.90;;;;;;4969213;28;20606;-44
2023/01/18 04:19:16;;;;;;;24.23;22.07;;;1.20;99.90;;;;;;4974657;28;20196;-48
2023/01/18 04:21:42;;;;;;;24.17;22.00;;;1.20;99.90;;;;;;4969595;28;20214;-46
2023/01/18 04:24:07;;;;;;;24.73;22.53;;;1.20;99.90;;;;;;4969821;28;20625;-45
2023/01/18 04:26:33;;;;;;;25.07;22.87;;;1.20;99.90;;;;;;4976116;28;20594;-44
2023/01/18 04:28:59;;;;;;;22.00;19.90;;;1.20;99.90;;;;;;4967951;28;20259;-46
2023/01/18 04:31:25;;;;;;;25.38;23.08;;;1.10;99.90;;;;;;4973970;28;20667;-46
2023/01/18 04:33:51;;;;;;;24.48;22.17;;;1.20;99.90;;;;;;4971861;28;20523;-45
2023/01/18 04:36:21;;;;;;;24.80;22.47;;;1.10;99.90;;;;;;4964726;28;20190;-45
2023/01/18 04:38:50;;;;;;;24.05;21.80;;;1.00;99.90;;;;;;4976510;28;20183;-43
2023/01/18 04:41:16;;;;;;;26.20;23.88;;;1.00;99.90;;;;;;4968880;28;20579;-46
2023/01/18 04:43:41;;;;;;;27.43;24.97;;;1.00;99.90;;;;;;4974870;28;20195;-49
2023/01/18 04:46:07;;;;;;;25.13;22.83;;;0.90;99.90;;;;;;4963721;28;20624;-45
2023/01/18 04:48:33;;;;;;;25.10;22.90;;;0.90;99.90;;;;;;4965978;28;20970;-44
2023/01/18 04:50:58;;;;;;;25.80;23.40;;;0.80;99.90;;;;;;4970186;28;20683;-44
2023/01/18 04:53:24;;;;;;;25.53;23.17;;;0.80;99.90;;;;;;4967546;28;20181;-47
2023/01/18 04:55:49;;;;;;;26.07;23.50;;;0.80;99.90;;;;;;4966539;28;20186;-44
2023/01/18 04:58:15;;;;;;;25.20;22.83;;;0.80;99.90;;;;;;4964932;28;20586;-45
2023/01/18 05:00:41;;;;;;;24.20;21.80;;;0.80;99.90;;;;;;4967347;28;20239;-47
2023/01/18 05:03:10;;;;;;;25.90;23.27;;;0.80;99.90;;;;;;4975777;28;20193;-48
2023/01/18 05:05:36;;;;;;;25.98;23.42;;;0.90;99.90;;;;;;4969296;28;20187;-47
2023/01/18 05:08:02;;;;;;;26.87;24.30;;;0.90;99.90;;;;;;4979346;28;20376;-44
2023/01/18 05:10:28;;;;;;;27.42;24.83;;;0.90;99.90;;;;;;4975977;28;20441;-44
2023/01/18 05:12:54;;;;;;;27.00;24.40;;;0.90;99.90;;;;;;4967894;28;20738;-43
2023/01/18 05:15:19;;;;;;;26.60;24.00;;;0.90;99.90;;;;;;4969471;28;20317;-45
2023/01/18 05:17:45;;;;;;;25.70;23.30;;;0.90;99.90;;;;;;4971104;28;21021;-47
2023/01/18 05:20:11;;;;;;;27.23;24.63;;;1.00;99.90;;;;;;4964223;28;20193;-47
2023/01/18 05:22:37;;;;;;;27.95;24.73;;;0.90;99.90;;;;;;4963997;28;20224;-45
2023/01/18 05:25:06;;;;;;;28.60;25.90;;;0.90;99.90;;;;;;4964605;28;20278;-45
2023/01/18 05:27:32;;;;;;;28.65;25.90;;;0.90;99.90;;;;;;4963012;28;20801;-49
2023/01/18 05:29:58;;;;;;;29.20;26.25;;;0.90;99.90;;;;;;4979460;28;20596;-44
2023/01/18 05:32:24;;;;;;;28.42;25.73;;;1.00;99.90;;;;;;4976115;28;20179;-46
2023/01/18 05:34:49;;;;;;;28.70;26.00;;;1.00;99.90;;;;;;4973077;28;20189;-44
2023/01/18 05:37:15;;;;;;;30.63;27.60;;;1.00;99.90;;;;;;4979122;28;20524;-45
2023/01/18 05:39:41;;;;;;;28.40;25.60;;;1.00;99.90;;;;;;4961603;28;20571;-45
2023/01/18 05:42:07;;;;;;;30.43;27.33;;;1.10;99.90;;;;;;4966893;28;20231;-49
2023/01/18 05:44:33;;;;;;;31.60;28.45;;;1.10;99.90;;;;;;4980148;28;20884;-46
2023/01/18 05:46:59;;;;;;;32.83;27.27;;;1.10;99.90;;;;;;4980336;28;20201;-46
2023/01/18 05:49:24;;;;;;;32.30;28.90;;;1.10;99.90;;;;;;4980159;28;20221;-46
2023/01/18 05:51:50;;;;;;;31.63;28.47;;;1.20;99.90;;;;;;4980149;28;20244;-43
2023/01/18 05:54:16;;;;;;;31.50;28.10;;;1.10;99.90;;;;;;4980295;28;20194;-44
2023/01/18 05:56:41;;;;;;;33.27;29.93;;;1.20;99.90;;;;;;4979040;28;20190;-48
2023/01/18 05:59:07;;;;;;;33.27;29.67;;;1.20;99.90;;;;;;4970387;28;20348;-46
2023/01/18 06:01:33;;;;;;;32.05;28.83;;;1.20;99.90;;;;;;4970295;28;20285;-49
2023/01/18 06:03:59;;;;;;;33.28;29.88;;;1.20;99.90;;;;;;4979942;28;20212;-45
2023/01/18 06:06:25;;;;;;;33.70;30.37;;;1.20;99.90;;;;;;4980088;28;20201;-45
2023/01/18 06:08:50;;;;;;;35.97;32.30;;;1.20;99.90;;;;;;4979790;28;20213;-46
2023/01/18 06:11:16;;;;;;;34.30;31.00;;;1.20;99.90;;;;;;4979910;28;20185;-43
2023/01/18 06:13:42;;;;;;;31.83;28.53;;;1.20;99.90;;;;;;4979784;28;20273;-45
2023/01/18 06:16:07;;;;;;;34.30;30.70;;;1.20;99.90;;;;;;4979806;28;20416;-45
2023/01/18 06:18:33;;;;;;;34.83;31.40;;;1.10;99.90;;;;;;4979678;28;20655;-48
2023/01/18 06:21:02;;;;;;;36.17;32.67;;;1.10;99.90;;;;;;4979734;28;20212;-45
2023/01/18 06:23:29;;;;;;;33.25;30.10;;;1.10;99.90;;;;;;4979361;28;20182;-46
2023/01/18 06:25:55;;;;;;;35.00;31.70;;;1.10;99.90;;;;;;4971829;28;20199;-50
2023/01/18 06:28:24;;;;;;;34.37;30.97;;;1.20;99.90;;;;;;4981770;28;20213;-47
2023/01/18 06:30:55;;;;;;;33.22;30.15;;;1.20;99.90;;;;;;4984007;28;20644;-49
2023/01/18 06:33:24;;;;;;;34.70;31.33;;;1.20;99.90;;;;;;4978422;28;20656;-46
2023/01/18 06:35:51;;;;;;;33.38;30.08;;;1.20;99.90;;;;;;4983901;28;20235;-47
2023/01/18 06:38:16;;;;;;;33.88;30.67;;;1.20;99.90;;;;;;4980106;28;20216;-46
2023/01/18 06:40:42;;;;;;;34.63;31.33;;;1.20;99.90;;;;;;4971128;28;20346;-48
2023/01/18 06:43:09;;;;;;;34.17;30.77;;;1.20;99.90;;;;;;4984294;28;20285;-46
2023/01/18 06:45:35;;;;;;;33.92;30.48;;;1.20;99.90;;;;;;4983122;28;20185;-46
2023/01/18 06:48:00;;;;;;;34.60;31.20;;;1.20;99.90;;;;;;4978840;28;20198;-45
2023/01/18 06:50:26;;;;;;;35.50;31.77;;;1.20;99.90;;;;;;4980226;28;20675;-44
2023/01/18 06:52:52;;;;;;;34.53;31.13;;;1.20;99.90;;;;;;4976037;28;20691;-47
2023/01/18 06:55:18;;;;;;;34.33;31.17;;;1.20;99.90;;;;;;4978893;28;20663;-47
2023/01/18 06:57:44;;;;;;;32.78;29.38;;;1.20;99.90;;;;;;4983417;28;20531;-49
2023/01/18 07:00:10;;;;;;;33.67;30.33;;;1.30;99.90;;;;;;4979738;28;20191;-46
2023/01/18 07:02:37;;;;;;;32.83;29.85;;;1.30;99.90;;;;;;4983301;28;20193;-46
2023/01/18 07:05:04;;;;;;;33.80;30.65;;;1.30;99.90;;;;;;4983207;28;20187;-47
2023/01/18 07:07:30;;;;;;;34.00;30.83;;;1.30;99.90;;;;;;4982882;28;20193;-46
2023/01/18 07:09:56;;;;;;;34.28;30.77;;;1.30;99.90;;;;;;4980563;28;20209;-48
2023/01/18 07:12:22;;;;;;;33.47;30.23;;;1.30;99.90;;;;;;4972359;28;20603;-43
2023/01/18 07:14:47;;;;;;;32.37;29.47;;;1.30;99.90;;;;;;4981825;28;20672;-45
2023/01/18 07:17:13;;;;;;;34.67;30.87;;;1.30;99.90;;;;;;4972854;28;20429;-44
2023/01/18 07:19:39;;;;;;;31.97;29.10;;;1.30;99.90;;;;;;4983314;28;20743;-47
2023/01/18 07:22:05;;;;;;;33.80;30.57;;;1.40;99.90;;;;;;4983267;28;20425;-45
2023/01/18 07:24:30;;;;;;;34.70;31.33;;;1.40;99.90;;;;;;4982360;28;20189;-46
2023/01/18 07:26:58;;;;;;;32.90;29.80;;;1.40;99.90;;;;;;4983220;28;20452;-47
2023/01/18 07:29:24;;;;;;;32.97;29.83;;;1.40;99.90;;;;;;4982286;28;20714;-48
2023/01/18 07:31:50;;;;;;;32.45;29.15;;;1.50;99.90;;;;;;4982670;28;20269;-50
2023/01/18 07:34:16;;;;;;;32.70;29.37;;;1.40;99.90;;;;;;4978822;28;20612;-46
2023/01/18 07:36:42;;;;;;;35.50;31.13;;;1.40;99.90;;;;;;4983005;28;20667;-46
2023/01/18 07:39:09;;;;;;;33.05;29.85;;;1.50;99.90;;;;;;4978613;28;20426;-46
2023/01/18 07:41:35;;;;;;;34.55;31.25;;;1.50;99.90;;;;;;4972615;28;20255;-51
2023/01/18 07:44:01;;;;;;;34.38;31.20;;;1.50;99.90;;;;;;4980202;28;20276;-47
2023/01/18 07:46:27;;;;;;;33.37;30.13;;;1.50;99.90;;;;;;4966474;28;20252;-47
2023/01/18 07:48:53;;;;;;;34.63;31.27;;;1.60;99.90;;;;;;4979040;28;20469;-50
2023/01/18 07:51:21;;;;;;;35.80;31.83;;;1.60;99.90;;;;;;4982318;28;20421;-46
2023/01/18 07:53:47;;;;;;;34.95;31.73;;;1.50;99.90;;;;;;4982611;28;20508;-44
2023/01/18 07:56:16;;;;;;;35.72;30.50;;;1.50;99.90;;;;;;4982421;28;20233;-44
2023/01/18 07:58:43;;;;;;;34.25;30.92;;;1.60;99.90;;;;;;4977105;28;20190;-44
2023/01/18 08:01:11;;;;;;;33.45;30.05;;;1.60;99.90;;;;;;4982143;28;20411;-46
2023/01/18 08:03:38;;;;;;;31.90;28.70;;;1.60;99.90;;;;;;4982500;28;20201;-43
2023/01/18 08:06:06;;;;;;;32.38;29.27;;;1.60;99.90;;;;;;4982364;28;20715;-46
2023/01/18 08:08:33;;;;;;;32.78;29.33;;;1.60;99.90;;;;;;4978728;28;20213;-45
2023/01/18 08:11:00;;;;;;;32.58;29.27;;;1.50;99.90;;;;;;4981761;28;20660;-47
2023/01/18 08:13:27;;;;;;;33.67;30.33;;;1.60;99.90;;;;;;4961569;28;20194;-45
2023/01/18 08:15:53;;;;;;;33.45;30.05;;;1.60;99.90;;;;;;4961178;28;20194;-44
2023/01/18 08:18:18;;;;;;;32.63;29.13;;;1.60;99.90;;;;;;4981673;28;20214;-46
2023/01/18 08:20:48;;;;;;;32.83;29.40;;;1.70;99.90;;;;;;4981842;28;20649;-45
2023/01/18 08:23:14;;;;;;;33.35;29.77;;;1.60;99.90;;;;;;4982323;28;20195;-45
2023/01/18 08:25:41;;;;;;;30.95;27.83;;;1.70;99.90;;;;;;4976291;28;20210;-46
2023/01/18 08:28:08;;;;;;;32.15;28.88;;;1.70;99.90;;;;;;4967039;28;20245;-46
2023/01/18 08:30:40;;;;;;;32.45;29.25;;;1.80;99.90;;;;;;4981649;28;20224;-47
2023/01/18 08:33:06;;;;;;;34.08;30.83;;;1.80;99.90;;;;;;4976411;28;20193;-46
2023/01/18 08:35:38;;;;;;;35.03;31.48;;;1.80;99.90;;;;;;4981779;28;20728;-45
2023/01/18 08:38:04;;;;;;;34.05;30.55;;;1.90;99.90;;;;;;4961080;28;20190;-50
2023/01/18 08:40:30;;;;;;;34.07;30.60;;;1.90;99.90;;;;;;4963105;28;20705;-46
2023/01/18 08:42:57;;;;;;;35.70;32.10;;;2.00;99.90;;;;;;4981339;28;21045;-46
2023/01/18 08:45:24;;;;;;;35.83;32.35;;;2.00;99.90;;;;;;4981147;28;20916;-46
2023/01/18 08:47:56;;;;;;;35.53;32.03;;;2.10;99.90;;;;;;4981409;28;20182;-47
2023/01/18 08:50:22;;;;;;;33.45;30.20;;;2.10;99.90;;;;;;4976499;28;20274;-49
2023/01/18 08:52:47;;;;;;;34.60;30.97;;;2.10;99.90;;;;;;4981302;28;20189;-47
2023/01/18 08:55:13;;;;;;;32.83;29.77;;;2.20;99.90;;;;;;4978218;28;20620;-48
2023/01/18 08:57:38;;;;;;;34.87;31.43;;;2.30;99.90;;;;;;4971599;28;20199;-46
2023/01/18 09:00:04;;;;;;;32.73;29.33;;;2.30;99.90;;;;;;4975329;28;20292;-45
2023/01/18 09:02:31;;;;;;;33.00;29.90;;;2.40;99.90;;;;;;4980400;28;20190;-45
2023/01/18 09:04:57;;;;;;;34.92;31.30;;;2.40;99.90;;;;;;4980969;28;20301;-47
2023/01/18 09:07:22;;;;;;;34.70;31.13;;;2.50;99.90;;;;;;4979996;28;20612;-44
2023/01/18 09:09:48;;;;;;;33.70;30.40;;;2.50;99.90;;;;;;4969845;28;20326;-47
2023/01/18 09:12:14;;;;;;;34.80;31.30;;;2.60;99.90;;;;;;4980680;28;20183;-45
2023/01/18 09:14:39;;;;;;;33.93;30.60;;;2.60;99.90;;;;;;4980840;28;20233;-45
2023/01/18 09:17:05;;;;;;;36.57;31.23;;;2.70;99.90;;;;;;4980444;28;20195;-46
2023/01/18 09:19:31;;;;;;;31.90;29.00;;;2.70;99.90;;;;;;4980893;28;20194;-46
2023/01/18 09:21:57;;;;;;;33.25;29.85;;;2.70;99.90;;;;;;4980638;28;20198;-45
2023/01/18 09:24:23;;;;;;;33.73;30.17;;;2.80;99.90;;;;;;4980523;28;20180;-45
2023/01/18 09:26:52;;;;;;;34.97;31.57;;;2.80;99.90;;;;;;4980337;28;20879;-51
2023/01/18 09:29:19;;;;;;;34.10;30.75;;;3.00;99.90;;;;;;4979727;28;20674;-45
2023/01/18 09:31:45;;;;;;;34.65;31.35;;;2.90;99.90;;;;;;4961282;28;20194;-44
2023/01/18 09:34:15;;;;;;;33.77;30.57;;;2.80;99.90;;;;;;4960049;28;20500;-45
2023/01/18 09:36:41;;;;;;;34.30;30.95;;;2.80;99.90;;;;;;4979500;28;20427;-46
2023/01/18 09:39:07;;;;;;;36.00;32.27;;;2.70;99.90;;;;;;4972588;28;20187;-48
2023/01/18 09:41:46;;;;;;;33.40;30.20;;;2.70;99.90;;;;;;4969148;28;20243;-47
2023/01/18 09:44:32;;;;;;;34.33;30.50;;;2.70;99.90;;;;;;4980042;28;20411;-45
2023/01/18 09:47:04;;;;;;;34.22;30.83;;;2.80;99.90;;;;;;4980083;28;20194;-46
2023/01/18 09:49:40;;;;;;;35.50;31.80;;;2.90;99.90;;;;;;4980070;28;20211;-46
2023/01/18 09:52:43;;;;;;;35.85;32.33;;;2.90;99.90;;;;;;4980115;28;20187;-48
2023/01/18 09:55:18;;;;;;;35.47;31.70;;;3.00;99.90;;;;;;4979014;28;20713;-46
2023/01/18 09:58:01;;;;;;;35.55;31.92;;;3.00;99.90;;;;;;4979949;28;20750;-45
2023/01/18 10:00:30;;;;;;;34.95;31.40;;;3.00;99.90;;;;;;4980243;28;20182;-46
2023/01/18 10:03:07;;;;;;;33.13;29.83;;;3.00;99.90;;;;;;4979663;28;20200;-45
2023/01/18 10:05:39;;;;;;;33.60;30.17;;;3.00;99.90;;;;;;4980186;28;20180;-46
2023/01/18 10:08:13;;;;;;;35.40;31.73;;;3.10;99.90;;;;;;4972623;28;20195;-48
2023/01/18 10:11:10;;;;;;;34.30;30.65;;;3.10;99.90;;;;;;4975069;28;20181;-47
2023/01/18 10:13:45;;;;;;;36.92;33.17;;;3.20;99.90;;;;;;4957308;28;20621;-48
2023/01/18 10:16:15;;;;;;;36.20;32.40;;;3.30;99.90;;;;;;4979714;28;20300;-48
2023/01/18 10:18:47;;;;;;;36.30;32.45;;;3.20;99.90;;;;;;4967801;28;20260;-53
2023/01/18 10:21:30;;;;;;;35.50;31.95;;;3.20;99.90;;;;;;4980412;28;20195;-49
2023/01/18 10:24:27;;;;;;;35.42;31.65;;;3.40;99.90;;;;;;4979604;28;20200;-49
2023/01/18 10:26:59;;;;;;;36.85;33.15;;;3.40;99.90;;;;;;4979645;28;20273;-49
2023/01/18 10:29:51;;;;;;;35.47;31.77;;;3.40;99.90;;;;;;4961067;28;20319;-44
2023/01/18 10:32:20;;;;;;;35.08;31.38;;;3.50;99.90;;;;;;4974748;28;20177;-47
2023/01/18 10:34:49;;;;;;;35.40;31.70;;;3.40;99.90;;;;;;4979010;28;20215;-48
2023/01/18 10:37:37;;;;;;;33.92;30.77;;;3.40;99.90;;;;;;4971728;28;20254;-44
2023/01/18 10:40:08;;;;;;;33.35;30.15;;;3.40;99.90;;;;;;4961404;28;20590;-51
2023/01/18 10:42:49;;;;;;;34.20;30.77;;;3.40;99.90;;;;;;4966761;28;20227;-47
2023/01/18 10:45:28;;;;;;;32.70;29.60;;;3.50;99.90;;;;;;4975107;28;20857;-46
2023/01/18 10:47:56;;;;;;;32.38;29.15;;;3.50;99.90;;;;;;4950408;28;20193;-45
2023/01/18 10:50:21;;;;;;;31.90;28.85;;;3.50;99.90;;;;;;4979318;28;20211;-48
2023/01/18 10:52:48;;;;;;;30.50;27.50;;;3.50;99.90;;;;;;4978346;28;20194;-46
2023/01/18 10:55:18;;;;;;;31.05;27.95;;;3.60;99.90;;;;;;4972488;28;20940;-50
2023/01/18 10:57:53;;;;;;;32.28;29.17;;;3.60;99.90;;;;;;4978243;28;20192;-45
2023/01/18 11:00:29;;;;;;;30.98;28.08;;;3.60;99.90;;;;;;4976084;28;20265;-44
2023/01/18 11:02:57;;;;;;;31.27;28.08;;;3.60;99.90;;;;;;4979459;28;20195;-48
2023/01/18 11:05:32;;;;;;;31.88;28.65;;;3.70;99.90;;;;;;4979190;28;20242;-45
2023/01/18 11:08:23;;;;;;;30.38;27.38;;;3.70;99.90;;;;;;4959309;28;20742;-45
2023/01/18 11:11:04;;;;;;;30.83;27.65;;;3.80;99.90;;;;;;4969664;28;20187;-46
2023/01/18 11:13:42;;;;;;;31.83;28.58;;;3.70;99.90;;;;;;4979910;28;20185;-44
2023/01/18 11:16:34;;;;;;;31.67;28.60;;;3.70;99.90;;;;;;4983450;28;20178;-45
2023/01/18 11:19:14;;;;;;;31.23;28.30;;;3.70;99.90;;;;;;4981438;28;20203;-50
2023/01/18 11:21:40;;;;;;;31.27;28.17;;;3.70;99.90;;;;;;4978854;28;20250;-45
2023/01/18 11:24:26;;;;;;;29.80;26.90;;;3.90;99.90;;;;;;4981966;28;20198;-44
2023/01/18 11:27:06;;;;;;;32.28;29.23;;;3.90;99.90;;;;;;4971117;28;20365;-47
2023/01/18 11:29:34;;;;;;;29.92;26.83;;;3.90;99.90;;;;;;4973051;28;20341;-45
2023/01/18 11:32:05;;;;;;;29.90;27.05;;;3.90;99.90;;;;;;4980957;28;20217;-47
2023/01/18 11:34:36;;;;;;;30.13;27.10;;;3.90;99.90;;;;;;4979605;28;20229;-49
2023/01/18 11:37:04;;;;;;;29.73;26.85;;;3.90;99.90;;;;;;4982735;28;20201;-46
2023/01/18 11:39:36;;;;;;;28.92;26.23;;;3.80;99.90;;;;;;4977207;28;20184;-47
2023/01/18 11:42:12;;;;;;;31.10;28.00;;;3.80;99.90;;;;;;4975715;28;20242;-51
2023/01/18 11:45:04;;;;;;;31.00;27.95;;;3.80;99.90;;;;;;4970054;28;20181;-51
2023/01/18 11:47:57;;;;;;;31.30;28.30;;;3.70;99.90;;;;;;4970013;28;20205;-45
2023/01/18 11:50:45;;;;;;;32.28;28.88;;;3.70;99.90;;;;;;4969135;28;20218;-49
2023/01/18 11:53:25;;;;;;;32.08;28.98;;;3.70;99.90;;;;;;4981792;28;20173;-45
2023/01/18 11:56:04;;;;;;;32.28;29.13;;;3.60;99.90;;;;;;4976266;28;20218;-50
2023/01/18 11:58:32;;;;;;;31.55;28.55;;;3.60;99.90;;;;;;4978131;28;20176;-44
2023/01/18 12:01:20;;;;;;;33.00;29.80;;;3.70;99.90;;;;;;4982058;28;20192;-46
2023/01/18 12:04:07;;;;;;;32.95;29.77;;;3.60;99.90;;;;;;4979706;28;20684;-49
2023/01/18 12:06:42;;;;;;;32.60;29.30;;;3.60;99.90;;;;;;4977418;28;20296;-45
2023/01/18 12:09:34;;;;;;;32.60;29.52;;;3.70;99.90;;;;;;4981859;28;20564;-48
2023/01/18 12:12:08;;;;;;;31.98;29.10;;;3.60;99.90;;;;;;4979093;28;20195;-45
2023/01/18 12:14:37;;;;;;;33.85;30.35;;;3.70;99.90;;;;;;4975575;28;20651;-45
2023/01/18 12:17:13;;;;;;;34.05;30.52;;;3.60;99.90;;;;;;4982177;28;20502;-45
2023/01/18 12:19:57;;;;;;;33.55;30.15;;;3.60;99.90;;;;;;4981091;28;20598;-49
2023/01/18 12:22:52;;;;;;;34.33;30.80;;;3.60;99.90;;;;;;4977569;28;20244;-47
2023/01/18 12:25:49;;;;;;;33.97;30.45;;;3.60;99.90;;;;;;4975714;28;20234;-47
2023/01/18 12:28:44;;;;;;;33.78;30.38;;;3.50;99.90;;;;;;4980490;28;20225;-48
2023/01/18 12:31:43;;;;;;;31.92;28.73;;;3.50;99.90;;;;;;4978098;28;20186;-47
2023/01/18 12:34:46;;;;;;;35.78;32.17;;;3.40;99.90;;;;;;4975927;28;20920;-46
2023/01/18 12:37:23;;;;;;;33.42;30.17;;;3.40;99.90;;;;;;4957818;28;20206;-47
2023/01/18 12:39:57;;;;;;;33.70;30.40;;;3.30;99.90;;;;;;4973871;28;20698;-45
2023/01/18 12:42:43;;;;;;;31.95;28.75;;;3.20;99.90;;;;;;4981418;28;20370;-48
2023/01/18 12:45:14;;;;;;;34.67;30.88;;;3.20;99.90;;;;;;4981393;28;20187;-45
2023/01/18 12:47:46;;;;;;;33.67;30.38;;;3.20;99.90;;;;;;4981458;28;20229;-46
2023/01/18 12:50:26;;;;;;;34.50;31.00;;;3.20;99.90;;;;;;4973035;28;20258;-44
2023/01/18 12:52:57;;;;;;;33.78;30.27;;;3.20;99.90;;;;;;4969913;28;20184;-45
2023/01/18 12:55:27;;;;;;;33.97;30.48;;;3.20;99.90;;;;;;4977632;28;20655;-44
2023/01/18 12:57:57;;;;;;;33.42;30.02;;;3.20;99.90;;;;;;4981059;28;20190;-46
2023/01/18 13:00:39;;;;;;;34.15;30.63;;;3.20;99.90;;;;;;4977270;28;20197;-48
2023/01/18 13:03:11;;;;;;;33.80;30.35;;;3.20;99.90;;;;;;4981261;28;20242;-46
2023/01/18 13:05:58;;;;;;;32.75;29.35;;;3.20;99.90;;;;;;4980022;28;20188;-44
2023/01/18 13:08:44;;;;;;;32.40;29.30;;;3.20;99.90;;;;;;4980962;28;20751;-45
2023/01/18 13:11:18;;;;;;;34.08;30.67;;;3.10;99.90;;;;;;4980865;28;20383;-45
2023/01/18 13:13:45;;;;;;;32.25;28.77;;;3.10;99.90;;;;;;4967796;28;20254;-46
2023/01/18 13:16:32;;;;;;;33.33;30.00;;;3.10;99.90;;;;;;4980872;28;20187;-49
2023/01/18 13:19:04;;;;;;;33.90;30.20;;;3.10;99.90;;;;;;4980892;28;20187;-47
2023/01/18 13:21:59;;;;;;;33.63;29.63;;;3.10;99.90;;;;;;4963916;28;20220;-47
2023/01/18 13:24:42;;;;;;;32.78;29.35;;;3.10;99.90;;;;;;4980928;28;20193;-46
2023/01/18 13:27:11;;;;;;;33.00;29.50;;;3.10;99.90;;;;;;4980393;28;20557;-49